Humidity-temperature Sensor

Selected Measurement Type: Relative Humidity

 
Relative Humidity [%]     6 entries per hour
Showing data from 9/14/2020 (00:00:00 Z) to 9/11/2020 (00:01:00 Z)
Previous Next [ Day | 3-Days | 7-Days ]
First Last
Prev [ Day | 3-Days | 7-Days ] Next
First Last

Start Time:     :
End Time:     :     
Time (in GMT) :00 :50 :40 :30 :20 :10
Previous Next [ Day | 3-Days | 7-Days ]
First Last
Prev [ Day | 3-Days | 7-Days ] Next
First Last


123 => good data
MM => data is determined as missing
-- => data not received/configured
Back to Top Back to Top
9/14/2020 00:00 to 23:10 73.64 73.95 74.77 74.44 76.43 74.61
9/13/2020 23:00 to 22:10 74.42 73.52 74.13 73.33 73.54 74.30
9/13/2020 22:00 to 21:10 74.59 75.12 74.87 73.93 75.47 76.25
9/13/2020 21:00 to 20:10 76.27 74.96 75.24 75.88 75.92 76.87
9/13/2020 20:00 to 19:10 76.78 76.52 77.83 78.08 78.53 77.65
9/13/2020 19:00 to 18:10 76.54 75.65 75.35 75.35 75.47 75.94
9/13/2020 18:00 to 17:10 76.27 75.88 76.91 78.98 79.23 78.77
9/13/2020 17:00 to 16:10 79.14 79.27 79.10 79.47 80.60 80.40
9/13/2020 16:00 to 15:10 79.62 79.16 79.72 80.05 79.21 78.71
9/13/2020 15:00 to 14:10 79.47 78.98 78.98 79.27 79.16 79.23
9/13/2020 14:00 to 13:10 78.90 79.31 79.78 80.25 79.99 80.70
9/13/2020 13:00 to 12:10 81.65 81.67 83.66 83.52 84.07 84.58
9/13/2020 12:00 to 11:10 85.10 85.14 85.30 85.30 85.47 85.86
9/13/2020 11:00 to 10:10 85.86 86.51 86.56 86.82 87.85 88.47
9/13/2020 10:00 to 9:10 88.94 89.31 89.94 89.61 89.92 90.00
9/13/2020 09:00 to 8:10 89.84 88.88 88.30 88.51 88.03 87.15
9/13/2020 08:00 to 7:10 87.91 87.97 88.61 90.46 91.09 90.91
9/13/2020 07:00 to 6:10 89.98 88.69 86.37 83.29 82.35 82.08
9/13/2020 06:00 to 5:10 82.37 81.87 81.94 82.37 82.18 81.34
9/13/2020 05:00 to 4:10 80.68 79.53 70.17 70.42 69.37 69.97
9/13/2020 04:00 to 3:10 69.43 70.25 71.61 71.71 71.49 71.77
9/13/2020 03:00 to 2:10 71.90 71.94 72.86 72.74 73.23 73.33
9/13/2020 02:00 to 1:10 72.47 73.81 74.20 74.85 75.41 74.11
9/13/2020 01:00 to 0:10 74.48 73.72 74.69 74.46 72.37 71.49
9/13/2020 00:00 to 23:10 70.95 70.89 71.14 72.43 71.24 72.82
9/12/2020 23:00 to 22:10 73.31 73.13 73.58 73.79 74.24 73.97
9/12/2020 22:00 to 21:10 74.59 75.51 75.39 75.35 75.16 75.72
9/12/2020 21:00 to 20:10 76.19 76.13 76.31 76.13 76.41 77.75
9/12/2020 20:00 to 19:10 77.58 77.50 78.26 78.34 77.32 77.81
9/12/2020 19:00 to 18:10 79.41 80.64 80.44 81.22 81.12 81.34
9/12/2020 18:00 to 17:10 82.59 85.82 87.21 88.01 86.62 84.89
9/12/2020 17:00 to 16:10 82.76 81.87 81.16 79.41 82.63 83.46
9/12/2020 16:00 to 15:10 82.59 81.34 82.49 82.96 83.83 84.32
9/12/2020 15:00 to 14:10 84.58 85.41 86.15 87.13 87.56 87.48
9/12/2020 14:00 to 13:10 87.68 85.57 85.34 84.50 83.93 83.41
9/12/2020 13:00 to 12:10 83.89 84.46 84.48 84.75 84.83 85.12
9/12/2020 12:00 to 11:10 85.10 85.10 84.63 85.00 84.85 84.42
9/12/2020 11:00 to 10:10 83.99 83.66 84.61 84.87 85.06 84.65
9/12/2020 10:00 to 9:10 85.51 84.81 85.73 84.42 84.52 83.64
9/12/2020 09:00 to 8:10 83.21 83.70 82.84 83.19 82.74 81.79
9/12/2020 08:00 to 7:10 82.02 82.92 83.44 82.29 83.76 84.09
9/12/2020 07:00 to 6:10 84.07 83.68 83.31 83.13 81.24 73.91
9/12/2020 06:00 to 5:10 73.68 74.57 73.81 73.72 75.10 73.83
9/12/2020 05:00 to 4:10 74.50 75.94 76.84 76.84 76.45 75.43
9/12/2020 04:00 to 3:10 75.37 75.63 75.53 76.19 77.28 76.64
9/12/2020 03:00 to 2:10 77.13 77.71 76.06 76.97 77.65 75.33
9/12/2020 02:00 to 1:10 75.74 75.98 75.69 76.31 77.23 77.99
9/12/2020 01:00 to 0:10 77.09 76.82 75.10 76.52 81.96 84.61
9/12/2020 00:00 to 23:10 87.15 86.12 93.06 92.06 75.98 75.18
9/11/2020 23:00 to 22:10 78.49 76.89 75.88 75.67 76.19 75.53
9/11/2020 22:00 to 21:10 75.80 74.79 73.46 75.24 75.96 75.90
9/11/2020 21:00 to 20:10 75.43 76.56 75.82 75.26 76.70 81.16
9/11/2020 20:00 to 19:10 83.93 88.88 90.03 83.27 85.71 81.53
9/11/2020 19:00 to 18:10 81.32 80.56 82.76 83.11 84.44 84.50
9/11/2020 18:00 to 17:10 85.67 85.88 86.19 85.78 86.64 85.82
9/11/2020 17:00 to 16:10 87.64 89.41 89.88 90.76 91.36 91.15
9/11/2020 16:00 to 15:10 90.79 92.49 92.32 90.23 89.33 88.40
9/11/2020 15:00 to 14:10 89.98 90.97 90.87 91.36 92.82 92.94
9/11/2020 14:00 to 13:10 93.27 92.82 93.29 93.76 92.88 92.22
9/11/2020 13:00 to 12:10 91.50 86.27 85.06 86.08 89.06 87.87
9/11/2020 12:00 to 11:10 89.98 92.88 92.18 88.73 88.30 81.83
9/11/2020 11:00 to 10:10 83.00 83.95 84.34 86.99 87.29 85.06
9/11/2020 10:00 to 9:10 77.81 78.49 80.27 78.32 78.96 79.51
9/11/2020 09:00 to 8:10 79.64 81.14 80.77 80.62 79.41 81.90
9/11/2020 08:00 to 7:10 80.60 79.92 80.83 80.11 80.85 77.23
9/11/2020 07:00 to 6:10 77.85 81.20 80.25 79.37 79.84 78.84
9/11/2020 06:00 to 5:10 78.84 77.99 78.06 79.39 78.26 79.92
9/11/2020 05:00 to 4:10 78.94 78.30 78.94 80.68 79.53 78.34
9/11/2020 04:00 to 3:10 77.93 79.02 76.56 75.43 76.13 74.85
9/11/2020 03:00 to 2:10 74.67 75.10 73.48 74.50 75.39 74.67
9/11/2020 02:00 to 1:10 73.83 72.92 74.16 73.64 72.74 73.99
9/11/2020 01:00 to 0:10 73.91 74.26 73.54 73.42 75.22 77.54